createdAt,value
2019-04-19T00:00:14.796Z,8.30
2019-04-19T00:01:12.849Z,7.50
2019-04-19T00:02:13.557Z,7.50
2019-04-19T00:03:19.159Z,7.50
2019-04-19T00:04:15.029Z,7.50
2019-04-19T00:05:11.146Z,7.50
2019-04-19T00:06:16.241Z,7.50
2019-04-19T00:07:17.592Z,7.50
2019-04-19T00:08:28.840Z,7.50
2019-04-19T00:09:27.658Z,7.50
2019-04-19T00:10:23.887Z,7.50
2019-04-19T00:11:21.149Z,8.80
2019-04-19T00:12:21.920Z,8.80
2019-04-19T00:13:10.977Z,8.80
2019-04-19T00:14:10.747Z,8.80
2019-04-19T00:15:10.233Z,8.80
2019-04-19T00:16:10.912Z,8.80
2019-04-19T00:17:13.920Z,8.80
2019-04-19T00:18:14.691Z,8.80
2019-04-19T00:19:30.664Z,8.80
2019-04-19T00:20:32.755Z,8.80
2019-04-19T00:21:27.839Z,7.20
2019-04-19T00:22:28.672Z,7.20
2019-04-19T00:23:20.286Z,7.20
2019-04-19T00:24:10.173Z,7.20
2019-04-19T00:25:11.312Z,7.20
2019-04-19T00:26:10.636Z,7.20
2019-04-19T00:27:10.160Z,7.20
2019-04-19T00:28:14.871Z,7.20
2019-04-19T00:29:19.033Z,7.20
2019-04-19T00:30:24.093Z,7.20
2019-04-19T00:31:22.668Z,8.70
2019-04-19T00:32:24.133Z,8.70
2019-04-19T00:33:18.100Z,8.70
2019-04-19T00:34:10.453Z,8.70
2019-04-19T00:35:11.542Z,8.70
2019-04-19T00:36:12.587Z,8.70
2019-04-19T00:37:10.256Z,8.70
2019-04-19T00:38:14.572Z,8.70
2019-04-19T00:39:23.740Z,8.70
2019-04-19T00:40:26.720Z,8.70
2019-04-19T00:41:27.820Z,7.30
2019-04-19T00:42:25.861Z,7.30
2019-04-19T00:43:27.771Z,7.30
2019-04-19T00:44:37.549Z,7.30
2019-04-19T00:45:26.466Z,7.30
2019-04-19T00:46:27.909Z,7.30
2019-04-19T00:47:30.074Z,7.30
2019-04-19T00:48:33.415Z,7.30
2019-04-19T00:49:21.876Z,7.30
2019-04-19T00:50:21.319Z,7.30
2019-04-19T00:51:20.600Z,8.50
2019-04-19T00:52:33.038Z,8.50
2019-04-19T00:53:24.080Z,8.50
2019-04-19T00:54:17.875Z,8.50
2019-04-19T00:55:16.500Z,8.50
2019-04-19T00:56:16.729Z,8.50
2019-04-19T00:57:19.187Z,8.50
2019-04-19T00:58:17.665Z,8.50
2019-04-19T00:59:14.569Z,8.50
2019-04-19T01:00:17.307Z,8.50
2019-04-19T01:01:17.164Z,7.30
2019-04-19T01:02:15.638Z,7.30
2019-04-19T01:03:13.426Z,7.30
2019-04-19T01:04:13.440Z,7.30
2019-04-19T01:05:14.630Z,7.30
2019-04-19T01:06:15.041Z,7.30
2019-04-19T01:07:20.085Z,7.30
2019-04-19T01:08:14.026Z,7.30
2019-04-19T01:09:26.734Z,7.30
2019-04-19T01:10:29.260Z,7.30
2019-04-19T01:11:23.483Z,7.50
2019-04-19T01:12:20.671Z,7.50
2019-04-19T01:13:18.077Z,7.50
2019-04-19T01:14:21.669Z,7.50
2019-04-19T01:15:22.377Z,7.50
2019-04-19T01:16:21.144Z,7.50
2019-04-19T01:17:22.700Z,7.50
2019-04-19T01:18:24.539Z,7.50
2019-04-19T01:19:14.666Z,7.50
2019-04-19T01:20:12.184Z,7.50
2019-04-19T01:21:11.329Z,8.50
2019-04-19T01:22:17.408Z,8.50
2019-04-19T01:23:13.807Z,8.50
2019-04-19T01:24:11.202Z,8.50
2019-04-19T01:25:17.077Z,8.50
2019-04-19T01:26:13.638Z,8.50
2019-04-19T01:27:13.272Z,8.50
2019-04-19T01:28:15.972Z,8.50
2019-04-19T01:29:12.861Z,8.50
2019-04-19T01:30:10.494Z,8.50
2019-04-19T01:31:16.439Z,7.80
2019-04-19T01:32:13.167Z,7.80
2019-04-19T01:33:10.607Z,7.80
2019-04-19T01:34:16.476Z,7.80
2019-04-19T01:35:15.304Z,7.80
2019-04-19T01:36:10.447Z,7.80
2019-04-19T01:37:16.258Z,7.80
2019-04-19T01:38:12.306Z,7.80
2019-04-19T01:39:25.483Z,7.80
2019-04-19T01:40:26.157Z,7.80
2019-04-19T01:41:27.075Z,9.30
2019-04-19T01:42:32.325Z,9.30
2019-04-19T01:43:33.437Z,9.30
2019-04-19T01:44:29.022Z,9.30
2019-04-19T01:45:26.881Z,9.30
2019-04-19T01:46:31.311Z,9.30
2019-04-19T01:47:30.388Z,9.30
2019-04-19T01:48:32.636Z,9.30
2019-04-19T01:49:21.039Z,9.30
2019-04-19T01:50:24.584Z,9.30
2019-04-19T01:51:33.645Z,8.10
2019-04-19T01:52:37.092Z,8.10
2019-04-19T01:53:29.376Z,8.10
2019-04-19T01:54:26.708Z,8.10
2019-04-19T01:55:18.884Z,8.10
2019-04-19T01:56:14.821Z,8.10
2019-04-19T01:57:12.727Z,8.10
2019-04-19T01:58:14.625Z,8.10
2019-04-19T01:59:10.304Z,8.10
2019-04-19T02:00:12.941Z,8.10
2019-04-19T02:01:16.530Z,8.80
2019-04-19T02:02:14.342Z,8.80
2019-04-19T02:03:11.115Z,8.80
2019-04-19T02:04:15.526Z,8.80
2019-04-19T02:05:14.551Z,8.80
2019-04-19T02:06:13.945Z,8.80
2019-04-19T02:07:15.809Z,8.80
2019-04-19T02:08:14.084Z,8.80
2019-04-19T02:09:11.239Z,8.80
2019-04-19T02:10:21.495Z,8.80
2019-04-19T02:11:23.222Z,7.60
2019-04-19T02:12:26.067Z,7.60
2019-04-19T02:13:21.276Z,7.60
2019-04-19T02:14:18.691Z,7.60
2019-04-19T02:15:14.879Z,7.60
2019-04-19T02:16:16.965Z,7.60
2019-04-19T02:17:13.158Z,7.60
2019-04-19T02:18:11.443Z,7.60
2019-04-19T02:19:16.301Z,7.60
2019-04-19T02:20:11.993Z,7.60
2019-04-19T02:21:12.926Z,7.10
2019-04-19T02:22:16.065Z,7.10
2019-04-19T02:23:13.129Z,7.10
2019-04-19T02:24:10.661Z,7.10
2019-04-19T02:25:15.958Z,7.10
2019-04-19T02:26:14.673Z,7.10
2019-04-19T02:27:13.446Z,7.10
2019-04-19T02:28:17.276Z,7.10
2019-04-19T02:29:14.555Z,7.10
2019-04-19T02:30:19.553Z,7.10
2019-04-19T02:31:31.969Z,10.30
2019-04-19T02:33:38.943Z,10.30
2019-04-19T02:34:37.079Z,10.30
2019-04-19T02:35:34.941Z,10.30
2019-04-19T02:36:47.926Z,10.30
2019-04-19T02:37:31.613Z,10.30
2019-04-19T02:38:36.373Z,10.30
2019-04-19T02:39:56.134Z,10.30
2019-04-19T02:40:52.322Z,10.30
2019-04-19T02:43:45.858Z,9.50
2019-04-19T02:44:45.827Z,9.50
2019-04-19T02:46:48.093Z,9.50
2019-04-19T02:51:00.701Z,9.50
2019-04-19T02:51:38.783Z,8.60
2019-04-19T02:52:40.940Z,8.60
2019-04-19T02:53:42.934Z,8.60
2019-04-19T02:54:40.807Z,8.60
2019-04-19T02:55:40.953Z,8.60
2019-04-19T02:56:59.796Z,8.60
2019-04-19T02:58:33.697Z,8.60
2019-04-19T02:59:47.380Z,8.60
2019-04-19T03:01:44.809Z,8.10
2019-04-19T03:02:50.632Z,8.10
2019-04-19T03:03:53.076Z,8.10
2019-04-19T03:04:45.608Z,8.10
2019-04-19T03:05:31.902Z,8.10
2019-04-19T03:06:25.317Z,8.10
2019-04-19T03:07:11.321Z,8.10
2019-04-19T03:08:10.553Z,8.10
2019-04-19T03:09:11.334Z,8.10
2019-04-19T03:10:15.358Z,8.10
2019-04-19T03:11:28.147Z,8.30
2019-04-19T03:12:32.095Z,8.30
2019-04-19T03:13:25.987Z,8.30
2019-04-19T03:14:20.847Z,8.30
2019-04-19T03:15:35.079Z,8.30
2019-04-19T03:16:32.436Z,8.30
2019-04-19T03:17:30.858Z,8.30
2019-04-19T03:19:23.404Z,8.30
2019-04-19T03:20:26.266Z,8.30
2019-04-19T03:21:25.256Z,6.70
2019-04-19T03:22:45.498Z,6.70
2019-04-19T03:23:23.309Z,6.70
2019-04-19T03:24:23.888Z,6.70
2019-04-19T03:25:24.046Z,6.70
2019-04-19T03:26:26.718Z,6.70
2019-04-19T03:27:17.961Z,6.70
2019-04-19T03:28:22.022Z,6.70
2019-04-19T03:29:20.664Z,6.70
2019-04-19T03:30:29.926Z,6.70
2019-04-19T03:31:40.919Z,7.30
2019-04-19T03:34:42.495Z,7.30
2019-04-19T03:35:28.497Z,7.30
2019-04-19T03:36:24.614Z,7.30
2019-04-19T03:37:32.952Z,7.30
2019-04-19T03:38:30.216Z,7.30
2019-04-19T03:39:29.815Z,7.30
2019-04-19T03:40:35.055Z,7.30
2019-04-19T03:41:40.633Z,6.60
2019-04-19T03:42:35.204Z,6.60
2019-04-19T03:43:39.566Z,6.60
2019-04-19T03:44:25.429Z,6.60
2019-04-19T03:45:28.693Z,6.60
2019-04-19T03:46:31.015Z,6.60
2019-04-19T03:47:27.945Z,6.60
2019-04-19T03:48:27.102Z,6.60
2019-04-19T03:50:26.658Z,6.60
2019-04-19T03:51:31.231Z,9.60
2019-04-19T03:52:26.349Z,9.60
2019-04-19T03:53:39.483Z,9.60
2019-04-19T03:54:30.063Z,9.60
2019-04-19T03:55:26.004Z,9.60
2019-04-19T03:56:28.822Z,9.60
2019-04-19T03:57:23.350Z,9.60
2019-04-19T03:58:14.947Z,9.60
2019-04-19T03:59:10.312Z,9.60
2019-04-19T04:00:11.114Z,9.60
2019-04-19T04:01:10.797Z,8.50
2019-04-19T04:02:10.391Z,8.50
2019-04-19T04:03:19.535Z,8.50
2019-04-19T04:04:16.697Z,8.50
2019-04-19T04:05:13.010Z,8.50
2019-04-19T04:06:12.415Z,8.50
2019-04-19T04:07:15.410Z,8.50
2019-04-19T04:08:16.323Z,8.50
2019-04-19T04:09:11.358Z,8.50
2019-04-19T04:10:15.058Z,8.50
2019-04-19T04:11:15.111Z,9.00
2019-04-19T04:12:24.900Z,9.00
2019-04-19T04:13:20.238Z,9.00
2019-04-19T04:14:21.713Z,9.00
2019-04-19T04:15:19.710Z,9.00
2019-04-19T04:16:23.013Z,9.00
2019-04-19T04:17:10.295Z,9.00
2019-04-19T04:18:11.257Z,9.00
2019-04-19T04:19:10.341Z,9.00
2019-04-19T04:20:11.375Z,9.00
2019-04-19T04:21:10.311Z,7.00
2019-04-19T04:22:18.041Z,7.00
2019-04-19T04:23:15.518Z,7.00
2019-04-19T04:24:20.152Z,7.00
2019-04-19T04:25:19.793Z,7.00
2019-04-19T04:26:14.804Z,7.00
2019-04-19T04:27:21.508Z,7.00
2019-04-19T04:28:26.366Z,7.00
2019-04-19T04:29:20.558Z,7.00
2019-04-19T04:30:21.976Z,7.00
2019-04-19T04:31:20.609Z,8.10
2019-04-19T04:32:19.613Z,8.10
2019-04-19T04:33:26.247Z,8.10
2019-04-19T04:34:29.356Z,8.10
2019-04-19T04:35:29.335Z,8.10
2019-04-19T04:36:30.584Z,8.10
2019-04-19T04:37:28.336Z,8.10
2019-04-19T04:38:19.461Z,8.10
2019-04-19T04:39:11.319Z,8.10
2019-04-19T04:40:10.545Z,8.10
2019-04-19T04:41:15.648Z,9.20
2019-04-19T04:42:20.163Z,9.20
2019-04-19T04:43:28.505Z,9.20
2019-04-19T04:44:29.538Z,9.20
2019-04-19T04:45:30.158Z,9.20
2019-04-19T04:46:35.383Z,9.20
2019-04-19T04:47:28.754Z,9.20
2019-04-19T04:48:36.392Z,9.20
2019-04-19T04:49:34.447Z,9.20
2019-04-19T04:50:42.301Z,9.20
2019-04-19T04:51:31.046Z,8.30
2019-04-19T04:52:20.144Z,8.30
2019-04-19T04:53:10.919Z,8.30
2019-04-19T04:54:10.388Z,8.30
2019-04-19T04:55:11.430Z,8.30
2019-04-19T04:56:11.807Z,8.30
2019-04-19T04:57:14.584Z,8.30
2019-04-19T04:58:18.587Z,8.30
2019-04-19T04:59:15.351Z,8.30
2019-04-19T05:00:11.777Z,8.30
2019-04-19T05:01:15.280Z,8.30
2019-04-19T05:02:30.177Z,8.10
2019-04-19T05:03:31.065Z,8.10
2019-04-19T05:04:26.292Z,8.10
2019-04-19T05:05:31.576Z,8.10
2019-04-19T05:06:28.176Z,8.10
2019-04-19T05:07:32.841Z,8.10
2019-04-19T05:08:31.475Z,8.10
2019-04-19T05:09:27.992Z,8.10
2019-04-19T05:10:28.148Z,8.10
2019-04-19T05:11:24.479Z,8.10
2019-04-19T05:12:36.403Z,7.10
2019-04-19T05:13:30.547Z,7.10
2019-04-19T05:14:28.660Z,7.10
2019-04-19T05:15:43.201Z,7.10
2019-04-19T05:16:43.222Z,7.10
2019-04-19T05:17:39.240Z,7.10
2019-04-19T05:18:29.404Z,7.10
2019-04-19T05:19:30.577Z,7.10
2019-04-19T05:20:28.816Z,7.10
2019-04-19T05:21:27.584Z,7.10
2019-04-19T05:22:24.679Z,10.40
2019-04-19T05:23:27.788Z,10.40
2019-04-19T05:24:33.800Z,10.40
2019-04-19T05:25:36.207Z,10.40
2019-04-19T05:26:49.562Z,10.40
2019-04-19T05:27:33.334Z,10.40
2019-04-19T05:28:27.799Z,10.40
2019-04-19T05:29:19.923Z,10.40
2019-04-19T05:30:11.262Z,10.40
2019-04-19T05:31:16.497Z,10.40
2019-04-19T05:32:21.095Z,9.50
2019-04-19T05:33:20.875Z,9.50
2019-04-19T05:34:26.166Z,9.50
2019-04-19T05:35:23.732Z,9.50
2019-04-19T05:36:30.973Z,9.50
2019-04-19T05:37:22.874Z,9.50
2019-04-19T05:38:30.545Z,9.50
2019-04-19T05:39:31.480Z,9.50
2019-04-19T05:40:27.957Z,9.50
2019-04-19T05:41:28.319Z,9.50
2019-04-19T05:42:24.525Z,8.80
2019-04-19T05:43:50.099Z,8.80
2019-04-19T05:44:37.574Z,8.80
2019-04-19T05:46:39.142Z,8.80
2019-04-19T05:47:28.324Z,8.80
2019-04-19T05:48:24.612Z,8.80
2019-04-19T05:49:31.282Z,8.80
2019-04-19T05:50:30.118Z,8.80
2019-04-19T05:51:35.785Z,8.80
2019-04-19T05:52:30.507Z,9.40
2019-04-19T05:53:22.161Z,9.40
2019-04-19T05:54:13.513Z,9.40
2019-04-19T05:55:11.555Z,9.40
2019-04-19T05:56:11.474Z,9.40
2019-04-19T05:57:31.942Z,9.40
2019-04-19T05:58:20.275Z,9.40
2019-04-19T05:59:17.554Z,9.40
2019-04-19T06:00:25.988Z,9.40
2019-04-19T06:01:34.268Z,9.40
2019-04-19T06:02:21.903Z,9.80
2019-04-19T06:03:21.170Z,9.80
2019-04-19T06:04:29.126Z,9.80
2019-04-19T06:05:36.382Z,9.80
2019-04-19T06:06:31.903Z,9.80
2019-04-19T06:07:27.464Z,9.80
2019-04-19T06:08:20.240Z,9.80
2019-04-19T06:09:11.172Z,9.80
2019-04-19T06:10:12.318Z,9.80
2019-04-19T06:11:10.768Z,9.80
2019-04-19T06:12:17.820Z,11.60
2019-04-19T06:13:13.960Z,11.60
2019-04-19T06:14:35.884Z,11.60
2019-04-19T06:15:33.357Z,11.60
2019-04-19T06:16:25.663Z,11.60
2019-04-19T06:17:27.816Z,11.60
2019-04-19T06:18:25.303Z,11.60
2019-04-19T06:19:30.219Z,11.60
2019-04-19T06:20:26.482Z,11.60
2019-04-19T06:21:28.863Z,11.60
2019-04-19T06:22:29.810Z,11.00
2019-04-19T06:23:29.714Z,11.00
2019-04-19T06:24:31.980Z,11.00
2019-04-19T06:25:35.590Z,11.00
2019-04-19T06:27:35.636Z,11.00
2019-04-19T06:28:30.715Z,11.00
2019-04-19T06:29:41.252Z,11.00
2019-04-19T06:30:30.331Z,11.00
2019-04-19T06:31:31.457Z,11.00
2019-04-19T06:32:36.290Z,9.40
2019-04-19T06:33:29.323Z,9.40
2019-04-19T06:34:30.939Z,9.40
2019-04-19T06:35:22.583Z,9.40
2019-04-19T06:36:12.524Z,9.40
2019-04-19T06:37:18.042Z,9.40
2019-04-19T06:38:11.620Z,9.40
2019-04-19T06:39:10.418Z,9.40
2019-04-19T06:40:19.103Z,9.40
2019-04-19T06:41:15.124Z,9.40
2019-04-19T06:42:13.290Z,15.20
2019-04-19T06:43:15.583Z,15.20
2019-04-19T06:44:20.936Z,15.20
2019-04-19T06:45:26.712Z,15.20
2019-04-19T06:46:26.819Z,15.20
2019-04-19T06:47:19.843Z,15.20
2019-04-19T06:48:15.002Z,15.20
2019-04-19T06:49:16.959Z,15.20
2019-04-19T06:50:10.975Z,15.20
2019-04-19T06:51:17.418Z,15.20
2019-04-19T06:52:17.898Z,9.90
2019-04-19T06:53:10.508Z,9.90
2019-04-19T06:54:12.703Z,9.90
2019-04-19T06:55:16.553Z,9.90
2019-04-19T06:56:19.237Z,9.90
2019-04-19T06:57:21.113Z,9.90
2019-04-19T06:58:15.982Z,9.90
2019-04-19T06:59:22.418Z,9.90
2019-04-19T07:00:23.327Z,9.90
2019-04-19T07:01:21.658Z,9.90
2019-04-19T07:02:11.346Z,10.20
2019-04-19T07:03:11.347Z,10.20
2019-04-19T07:04:10.713Z,10.20
2019-04-19T07:05:23.004Z,10.20
2019-04-19T07:06:26.984Z,10.20
2019-04-19T07:07:29.893Z,10.20
2019-04-19T07:08:53.165Z,10.20
2019-04-19T07:09:37.573Z,10.20
2019-04-19T07:10:36.888Z,10.20
2019-04-19T07:11:32.867Z,10.20
2019-04-19T07:12:31.215Z,10.90
2019-04-19T07:13:25.015Z,10.90
2019-04-19T07:14:17.205Z,10.90
2019-04-19T07:15:48.576Z,10.90
2019-04-19T07:16:30.220Z,10.90
2019-04-19T07:17:26.318Z,10.90
2019-04-19T07:18:25.025Z,10.90
2019-04-19T07:19:30.210Z,10.90
2019-04-19T07:20:24.385Z,10.90
2019-04-19T07:21:31.602Z,10.90
2019-04-19T07:22:22.824Z,10.70
2019-04-19T07:23:33.122Z,10.70
2019-04-19T07:24:33.532Z,10.70
2019-04-19T07:25:36.816Z,10.70
2019-04-19T07:26:33.765Z,10.70
2019-04-19T07:27:22.533Z,10.70
2019-04-19T07:28:18.431Z,10.70
2019-04-19T07:29:10.672Z,10.70
2019-04-19T07:30:11.892Z,10.70
2019-04-19T07:31:12.851Z,10.70
2019-04-19T07:32:10.575Z,10.40
2019-04-19T07:33:16.859Z,10.40
2019-04-19T07:34:28.908Z,10.40
2019-04-19T07:35:32.121Z,10.40
2019-04-19T07:36:28.657Z,10.40
2019-04-19T07:37:28.119Z,10.40
2019-04-19T07:38:47.777Z,10.40
2019-04-19T07:39:28.150Z,10.40
2019-04-19T07:40:33.853Z,10.40
2019-04-19T07:41:26.857Z,10.40
2019-04-19T07:42:30.469Z,9.40
2019-04-19T07:43:25.790Z,9.40
2019-04-19T07:44:22.253Z,9.40
2019-04-19T07:45:13.919Z,9.40
2019-04-19T07:46:31.402Z,9.40
2019-04-19T07:47:24.039Z,9.40
2019-04-19T07:48:13.578Z,9.40
2019-04-19T07:49:12.695Z,9.40
2019-04-19T07:50:17.917Z,9.40
2019-04-19T07:51:15.948Z,9.40
2019-04-19T07:52:19.352Z,10.50
2019-04-19T07:53:14.775Z,10.50
2019-04-19T07:54:15.699Z,10.50
2019-04-19T07:55:13.609Z,10.50
2019-04-19T07:56:21.841Z,10.50
2019-04-19T07:57:42.205Z,10.50
2019-04-19T07:58:38.874Z,10.50
2019-04-19T07:59:31.875Z,10.50
2019-04-19T08:01:45.789Z,10.50
2019-04-19T08:05:36.189Z,9.40
2019-04-19T08:06:53.962Z,9.40
2019-04-19T08:08:13.737Z,9.40
2019-04-19T08:09:34.678Z,9.40
2019-04-19T08:10:40.716Z,9.40
2019-04-19T08:13:48.585Z,8.50
2019-04-19T08:15:37.047Z,8.50
2019-04-19T08:17:26.266Z,8.50
2019-04-19T08:27:22.754Z,7.70
2019-04-19T08:28:20.730Z,7.70
2019-04-19T08:29:22.016Z,7.70
2019-04-19T08:30:16.693Z,7.70
2019-04-19T08:31:12.277Z,7.70
2019-04-19T08:32:11.108Z,8.30
2019-04-19T08:33:10.626Z,8.30
2019-04-19T08:34:15.651Z,8.30
2019-04-19T08:35:17.054Z,8.30
2019-04-19T08:36:13.807Z,8.30
2019-04-19T08:37:19.812Z,8.30
2019-04-19T08:38:17.518Z,8.30
2019-04-19T08:39:27.417Z,8.30
2019-04-19T08:40:27.936Z,8.30
2019-04-19T08:41:21.414Z,8.30
2019-04-19T08:42:30.933Z,8.40
2019-04-19T08:43:25.310Z,8.40
2019-04-19T08:44:27.919Z,8.40
2019-04-19T08:45:15.209Z,8.40
2019-04-19T08:46:11.228Z,8.40
2019-04-19T08:47:20.410Z,8.40
2019-04-19T08:48:17.469Z,8.40
2019-04-19T08:49:18.826Z,8.40
2019-04-19T08:50:13.455Z,8.40
2019-04-19T08:51:10.461Z,8.40
2019-04-19T08:52:15.300Z,7.30
2019-04-19T08:53:30.591Z,7.30
2019-04-19T08:54:31.403Z,7.30
2019-04-19T08:55:29.091Z,7.30
2019-04-19T08:56:23.021Z,7.30
2019-04-19T08:57:14.734Z,7.30
2019-04-19T08:58:29.814Z,7.30
2019-04-19T08:59:35.830Z,7.30
2019-04-19T09:00:40.854Z,7.30
2019-04-19T09:01:34.177Z,7.30
2019-04-19T09:02:29.010Z,8.10
2019-04-19T09:03:37.503Z,8.10
2019-04-19T09:04:30.409Z,8.10
2019-04-19T09:05:28.654Z,8.10
2019-04-19T09:07:15.914Z,8.10
2019-04-19T09:08:34.030Z,8.10
2019-04-19T09:09:32.695Z,8.10
2019-04-19T09:10:33.469Z,8.10
2019-04-19T09:11:24.786Z,8.10
2019-04-19T09:12:25.423Z,9.00
2019-04-19T09:13:34.013Z,9.00
2019-04-19T09:14:38.188Z,9.00
2019-04-19T09:15:31.972Z,9.00
2019-04-19T09:16:26.431Z,9.00
2019-04-19T09:17:47.522Z,9.00
2019-04-19T09:18:41.504Z,9.00
2019-04-19T09:19:45.786Z,9.00
2019-04-19T09:20:30.324Z,9.00
2019-04-19T09:21:23.014Z,9.00
2019-04-19T09:22:25.764Z,6.90
2019-04-19T09:23:23.738Z,6.90
2019-04-19T09:24:16.983Z,6.90
2019-04-19T09:25:24.367Z,6.90
2019-04-19T09:26:30.390Z,6.90
2019-04-19T09:27:38.468Z,6.90
2019-04-19T09:29:33.625Z,6.90
2019-04-19T09:30:27.737Z,6.90
2019-04-19T09:31:21.456Z,6.90
2019-04-19T09:32:17.497Z,6.00
2019-04-19T09:33:19.214Z,6.00
2019-04-19T09:34:15.462Z,6.00
2019-04-19T09:35:12.748Z,6.00
2019-04-19T09:36:15.415Z,6.00
2019-04-19T09:37:21.262Z,6.00
2019-04-19T09:38:20.951Z,6.00
2019-04-19T09:39:24.989Z,6.00
2019-04-19T09:40:15.297Z,6.00
2019-04-19T09:41:19.569Z,6.00
2019-04-19T09:42:24.368Z,8.50
2019-04-19T09:43:24.081Z,8.50
2019-04-19T09:44:19.517Z,8.50
2019-04-19T09:45:10.520Z,8.50
2019-04-19T09:46:10.581Z,8.50
2019-04-19T09:47:10.578Z,8.50
2019-04-19T09:48:31.692Z,8.50
2019-04-19T09:49:24.942Z,8.50
2019-04-19T09:50:29.727Z,8.50
2019-04-19T09:51:30.180Z,8.50
2019-04-19T09:52:40.041Z,6.50
2019-04-19T09:53:35.636Z,6.50
2019-04-19T09:54:32.297Z,6.50
2019-04-19T09:55:32.553Z,6.50
2019-04-19T09:56:27.936Z,6.50
2019-04-19T09:57:29.012Z,6.50
2019-04-19T09:58:26.496Z,6.50
2019-04-19T09:59:20.513Z,6.50
2019-04-19T10:00:16.609Z,6.50
2019-04-19T10:01:10.698Z,6.50
2019-04-19T10:02:15.246Z,5.80
2019-04-19T10:03:22.722Z,5.80
2019-04-19T10:04:10.914Z,5.80
2019-04-19T10:05:10.576Z,5.80
2019-04-19T10:06:11.035Z,5.80
2019-04-19T10:07:11.217Z,5.80
2019-04-19T10:08:11.575Z,5.80
2019-04-19T10:09:15.365Z,5.80
2019-04-19T10:10:13.104Z,5.80
2019-04-19T10:11:10.778Z,5.80
2019-04-19T10:12:11.296Z,6.30
2019-04-19T10:13:11.847Z,6.30
2019-04-19T10:14:12.935Z,6.30
2019-04-19T10:15:11.731Z,6.30
2019-04-19T10:16:10.568Z,6.30
2019-04-19T10:17:12.248Z,6.30
2019-04-19T10:18:10.642Z,6.30
2019-04-19T10:19:11.452Z,6.30
2019-04-19T10:20:10.913Z,6.30
2019-04-19T10:21:19.320Z,6.30
2019-04-19T10:22:10.586Z,6.70
2019-04-19T10:23:11.263Z,6.70
2019-04-19T10:24:14.832Z,6.70
2019-04-19T10:25:11.348Z,6.70
2019-04-19T10:26:12.330Z,6.70
2019-04-19T10:27:10.836Z,6.70
2019-04-19T10:28:11.827Z,6.70
2019-04-19T10:29:19.945Z,6.70
2019-04-19T10:31:11.423Z,6.70
2019-04-19T10:32:10.780Z,4.60
2019-04-19T10:33:10.834Z,4.60
2019-04-19T10:34:10.610Z,4.60
2019-04-19T10:35:11.520Z,4.60
2019-04-19T10:36:10.828Z,4.60
2019-04-19T10:37:10.951Z,4.60
2019-04-19T10:38:11.659Z,4.60
2019-04-19T10:39:11.816Z,4.60
2019-04-19T10:40:10.680Z,4.60
2019-04-19T10:41:11.602Z,4.60
2019-04-19T10:42:10.612Z,9.10
2019-04-19T10:43:11.451Z,9.10
2019-04-19T10:44:15.437Z,9.10
2019-04-19T10:45:12.045Z,9.10
2019-04-19T10:46:10.954Z,9.10
2019-04-19T10:47:10.672Z,9.10
2019-04-19T10:48:11.792Z,9.10
2019-04-19T10:49:17.338Z,9.10
2019-04-19T10:50:20.676Z,9.10
2019-04-19T10:51:12.178Z,9.10
2019-04-19T10:52:10.601Z,6.30
2019-04-19T10:53:10.598Z,6.30
2019-04-19T10:54:10.800Z,6.30
2019-04-19T10:55:10.699Z,6.30
2019-04-19T10:56:10.609Z,6.30
2019-04-19T10:57:10.565Z,6.30
2019-04-19T10:58:11.638Z,6.30
2019-04-19T10:59:10.596Z,6.30
2019-04-19T11:00:11.337Z,6.30
2019-04-19T11:01:11.411Z,6.30
2019-04-19T11:02:10.701Z,6.30
2019-04-19T11:03:10.784Z,5.40
2019-04-19T11:04:11.067Z,5.40
2019-04-19T11:05:11.207Z,5.40
2019-04-19T11:06:10.631Z,5.40
2019-04-19T11:07:11.703Z,5.40
2019-04-19T11:08:10.690Z,5.40
2019-04-19T11:09:10.690Z,5.40
2019-04-19T11:10:11.876Z,5.40
2019-04-19T11:11:11.699Z,5.40
2019-04-19T11:12:10.640Z,5.40
2019-04-19T11:13:10.792Z,6.40
2019-04-19T11:14:10.692Z,6.40
2019-04-19T11:15:10.849Z,6.40
2019-04-19T11:16:10.633Z,6.40
2019-04-19T11:17:11.620Z,6.40
2019-04-19T11:18:11.767Z,6.40
2019-04-19T11:19:17.452Z,6.40
2019-04-19T11:20:22.798Z,6.40
2019-04-19T11:21:11.596Z,6.40
2019-04-19T11:22:11.846Z,6.40
2019-04-19T11:23:11.375Z,4.70
2019-04-19T11:24:11.660Z,4.70
2019-04-19T11:25:10.644Z,4.70
2019-04-19T11:26:10.638Z,4.70
2019-04-19T11:27:11.052Z,4.70
2019-04-19T11:28:11.120Z,4.70
2019-04-19T11:29:11.086Z,4.70
2019-04-19T11:30:10.948Z,4.70
2019-04-19T11:31:10.992Z,4.70
2019-04-19T11:32:10.643Z,4.70
2019-04-19T11:33:10.918Z,4.80
2019-04-19T11:34:11.121Z,4.80
2019-04-19T11:35:11.734Z,4.80
2019-04-19T11:36:11.167Z,4.80
2019-04-19T11:37:13.438Z,4.80
2019-04-19T11:38:11.178Z,4.80
2019-04-19T11:39:10.707Z,4.80
2019-04-19T11:40:11.171Z,4.80
2019-04-19T11:41:11.218Z,4.80
2019-04-19T11:42:10.613Z,4.80
2019-04-19T11:43:11.968Z,5.60
2019-04-19T11:44:17.360Z,5.60
2019-04-19T11:45:11.970Z,5.60
2019-04-19T11:46:11.815Z,5.60
2019-04-19T11:47:11.120Z,5.60
2019-04-19T11:48:11.016Z,5.60
2019-04-19T11:49:23.694Z,5.60
2019-04-19T11:50:11.704Z,5.60
2019-04-19T11:51:11.789Z,5.60
2019-04-19T11:52:12.245Z,5.60
2019-04-19T11:53:10.722Z,7.30
2019-04-19T11:54:10.664Z,7.30
2019-04-19T11:55:10.684Z,7.30
2019-04-19T11:56:10.667Z,7.30
2019-04-19T11:57:10.896Z,7.30
2019-04-19T11:58:10.653Z,7.30
2019-04-19T11:59:10.904Z,7.30
2019-04-19T12:00:11.536Z,7.30
2019-04-19T12:01:12.082Z,7.30
2019-04-19T12:02:10.761Z,7.30
2019-04-19T12:03:11.909Z,4.20
2019-04-19T12:04:10.652Z,4.20
2019-04-19T12:05:16.493Z,4.20
2019-04-19T12:06:12.042Z,4.20
2019-04-19T12:07:10.734Z,4.20
2019-04-19T12:08:10.693Z,4.20
2019-04-19T12:09:10.648Z,4.20
2019-04-19T12:10:10.658Z,4.20
2019-04-19T12:11:10.667Z,4.20
2019-04-19T12:12:10.722Z,4.20
2019-04-19T12:13:11.048Z,3.90
2019-04-19T12:14:12.144Z,3.90
2019-04-19T12:15:10.699Z,3.90
2019-04-19T12:16:10.941Z,3.90
2019-04-19T12:17:11.154Z,3.90
2019-04-19T12:18:10.670Z,3.90
2019-04-19T12:19:11.985Z,3.90
2019-04-19T12:20:11.328Z,3.90
2019-04-19T12:21:11.337Z,3.90
2019-04-19T12:22:10.739Z,3.90
2019-04-19T12:23:11.693Z,6.40
2019-04-19T12:24:10.882Z,6.40
2019-04-19T12:25:11.927Z,6.40
2019-04-19T12:26:11.551Z,6.40
2019-04-19T12:27:11.685Z,6.40
2019-04-19T12:28:11.796Z,6.40
2019-04-19T12:29:22.804Z,6.40
2019-04-19T12:30:11.555Z,6.40
2019-04-19T12:31:11.533Z,6.40
2019-04-19T12:32:11.747Z,6.40
2019-04-19T12:33:11.213Z,6.80
2019-04-19T12:34:11.666Z,6.80
2019-04-19T12:35:11.021Z,6.80
2019-04-19T12:36:10.955Z,6.80
2019-04-19T12:37:11.093Z,6.80
2019-04-19T12:38:10.744Z,6.80
2019-04-19T12:39:10.673Z,6.80
2019-04-19T12:40:10.910Z,6.80
2019-04-19T12:41:12.094Z,6.80
2019-04-19T12:42:11.253Z,6.80
2019-04-19T12:43:11.900Z,5.20
2019-04-19T12:44:11.085Z,5.20
2019-04-19T12:45:10.719Z,5.20
2019-04-19T12:46:10.960Z,5.20
2019-04-19T12:47:11.027Z,5.20
2019-04-19T12:48:11.792Z,5.20
2019-04-19T12:49:10.679Z,5.20
2019-04-19T12:50:11.760Z,5.20
2019-04-19T12:51:12.120Z,5.20
2019-04-19T12:52:10.749Z,5.20
2019-04-19T12:53:10.755Z,4.60
2019-04-19T12:54:11.991Z,4.60
2019-04-19T12:55:10.704Z,4.60
2019-04-19T12:56:11.758Z,4.60
2019-04-19T12:57:11.916Z,4.60
2019-04-19T12:58:10.686Z,4.60
2019-04-19T12:59:11.624Z,4.60
2019-04-19T13:00:11.681Z,4.60
2019-04-19T13:01:12.115Z,4.60
2019-04-19T13:02:11.715Z,4.60
2019-04-19T13:03:11.882Z,5.10
2019-04-19T13:04:10.778Z,5.10
2019-04-19T13:05:11.695Z,5.10
2019-04-19T13:06:11.481Z,5.10
2019-04-19T13:07:10.994Z,5.10
2019-04-19T13:08:11.517Z,5.10
2019-04-19T13:09:11.069Z,5.10
2019-04-19T13:10:11.094Z,5.10
2019-04-19T13:11:11.287Z,5.10
2019-04-19T13:12:10.846Z,5.10
2019-04-19T13:13:11.806Z,6.60
2019-04-19T13:14:11.993Z,6.60
2019-04-19T13:15:11.592Z,6.60
2019-04-19T13:16:10.719Z,6.60
2019-04-19T13:17:10.727Z,6.60
2019-04-19T13:18:11.997Z,6.60
2019-04-19T13:19:12.151Z,6.60
2019-04-19T13:20:19.098Z,6.60
2019-04-19T13:21:11.498Z,6.60
2019-04-19T13:22:10.819Z,6.60
2019-04-19T13:23:10.774Z,5.60
2019-04-19T13:24:10.997Z,5.60
2019-04-19T13:25:14.771Z,5.60
2019-04-19T13:26:11.373Z,5.60
2019-04-19T13:27:11.617Z,5.60
2019-04-19T13:28:11.288Z,5.60
2019-04-19T13:29:11.462Z,5.60
2019-04-19T13:30:22.521Z,5.60
2019-04-19T13:31:12.695Z,5.60
2019-04-19T13:32:11.576Z,5.60
2019-04-19T13:33:10.781Z,7.60
2019-04-19T13:34:11.588Z,7.60
2019-04-19T13:35:10.785Z,7.60
2019-04-19T13:36:11.155Z,7.60
2019-04-19T13:37:11.362Z,7.60
2019-04-19T13:38:10.787Z,7.60
2019-04-19T13:39:11.136Z,7.60
2019-04-19T13:40:10.700Z,7.60
2019-04-19T13:41:11.341Z,7.60
2019-04-19T13:42:10.895Z,7.60
2019-04-19T13:43:11.055Z,6.20
2019-04-19T13:44:11.255Z,6.20
2019-04-19T13:45:18.164Z,6.20
2019-04-19T13:46:10.851Z,6.20
2019-04-19T13:47:11.056Z,6.20
2019-04-19T13:48:10.824Z,6.20
2019-04-19T13:49:10.806Z,6.20
2019-04-19T13:50:21.972Z,6.20
2019-04-19T13:51:12.052Z,6.20